createdAt,value
2023-03-30T00:00:19.019Z,1.80
2023-03-30T00:05:45.723Z,1.87
2023-03-30T00:10:55.133Z,1.90
2023-03-30T00:16:01.516Z,1.96
2023-03-30T00:21:09.890Z,1.97
2023-03-30T00:26:18.763Z,2.01
2023-03-30T00:31:25.064Z,2.04
2023-03-30T00:36:37.358Z,2.08
2023-03-30T00:41:45.108Z,2.10
2023-03-30T00:46:51.620Z,2.11
2023-03-30T00:51:58.020Z,2.17
2023-03-30T00:57:07.850Z,2.24
2023-03-30T01:02:14.796Z,2.26
2023-03-30T01:07:24.598Z,2.28
2023-03-30T01:12:32.404Z,2.31
2023-03-30T01:18:01.007Z,2.37
2023-03-30T01:23:48.988Z,2.42
2023-03-30T01:29:04.727Z,2.46
2023-03-30T01:34:58.136Z,2.51
2023-03-30T01:40:13.511Z,2.54
2023-03-30T01:45:30.183Z,2.59
2023-03-30T01:50:42.117Z,2.62
2023-03-30T01:55:57.279Z,2.63
2023-03-30T02:01:08.228Z,2.65
2023-03-30T02:06:23.733Z,2.66
2023-03-30T02:11:35.583Z,2.68
2023-03-30T02:16:49.311Z,2.71
2023-03-30T02:21:56.571Z,2.72
2023-03-30T02:27:06.234Z,2.75
2023-03-30T02:32:18.494Z,2.74
2023-03-30T02:37:45.336Z,2.73
2023-03-30T02:43:09.121Z,2.76
2023-03-30T02:48:31.167Z,2.77
2023-03-30T02:53:46.802Z,2.76
2023-03-30T02:59:14.584Z,2.78
2023-03-30T03:04:24.002Z,2.79
2023-03-30T03:09:49.666Z,2.80
2023-03-30T03:14:58.157Z,2.81
2023-03-30T03:20:06.439Z,2.83
2023-03-30T03:25:13.247Z,2.82
2023-03-30T03:30:34.354Z,2.86
2023-03-30T03:36:00.560Z,2.84
2023-03-30T03:41:09.820Z,2.86
2023-03-30T03:46:19.320Z,2.87
2023-03-30T03:51:25.850Z,2.87
2023-03-30T03:56:32.618Z,2.88
2023-03-30T04:01:40.774Z,2.88
2023-03-30T04:06:48.115Z,2.88
2023-03-30T04:11:54.424Z,2.90
2023-03-30T04:17:18.424Z,2.91
2023-03-30T04:22:50.637Z,2.91
2023-03-30T04:28:11.994Z,2.96
2023-03-30T04:33:47.415Z,3.01
2023-03-30T04:39:18.461Z,3.04
2023-03-30T04:44:44.514Z,3.10
2023-03-30T04:50:02.987Z,3.14
2023-03-30T04:55:28.319Z,3.16
2023-03-30T05:00:58.665Z,3.19
2023-03-30T05:06:35.981Z,3.25
2023-03-30T05:12:15.179Z,3.30
2023-03-30T05:17:38.875Z,3.34
2023-03-30T05:23:09.041Z,3.40
2023-03-30T05:28:34.016Z,3.48
2023-03-30T05:34:07.024Z,3.55
2023-03-30T05:39:33.620Z,3.65
2023-03-30T05:45:11.514Z,3.70
2023-03-30T05:50:24.700Z,3.78
2023-03-30T05:55:39.724Z,3.88
2023-03-30T06:01:06.173Z,4.00
2023-03-30T06:06:18.330Z,4.12
2023-03-30T06:11:29.577Z,4.24
2023-03-30T06:16:46.641Z,4.36
2023-03-30T06:21:54.855Z,4.49
2023-03-30T06:27:08.698Z,4.59
2023-03-30T06:32:15.770Z,4.67
2023-03-30T06:37:45.330Z,4.78
2023-03-30T06:42:53.567Z,4.89
2023-03-30T06:48:07.495Z,4.93
2023-03-30T06:53:18.193Z,4.98
2023-03-30T06:58:30.116Z,5.03
2023-03-30T07:03:36.532Z,5.09
2023-03-30T07:08:58.862Z,5.12
2023-03-30T07:14:07.817Z,5.19
2023-03-30T07:19:14.942Z,5.24
2023-03-30T07:24:21.583Z,5.32
2023-03-30T07:29:29.690Z,5.35
2023-03-30T07:34:36.690Z,5.41
2023-03-30T07:39:43.620Z,5.49
2023-03-30T07:44:52.665Z,5.51
2023-03-30T07:50:02.455Z,5.57
2023-03-30T07:55:11.369Z,5.60
2023-03-30T08:00:28.852Z,5.64
2023-03-30T08:06:01.012Z,5.68
2023-03-30T08:11:11.624Z,5.74
2023-03-30T08:16:22.262Z,5.81
2023-03-30T08:21:28.808Z,5.90
2023-03-30T08:26:36.623Z,5.97
2023-03-30T08:31:44.295Z,6.05
2023-03-30T08:36:50.562Z,6.17
2023-03-30T08:42:23.848Z,6.28
2023-03-30T08:47:54.616Z,6.36
2023-03-30T08:58:18.294Z,6.63
2023-03-30T09:03:38.640Z,6.76
2023-03-30T09:08:45.622Z,6.82
2023-03-30T09:13:53.365Z,6.86
2023-03-30T09:19:05.573Z,6.95
2023-03-30T09:24:20.601Z,7.04
2023-03-30T09:29:31.774Z,7.18
2023-03-30T09:34:47.640Z,7.34
2023-03-30T09:39:54.221Z,7.44
2023-03-30T09:45:07.584Z,7.51
2023-03-30T09:50:23.549Z,7.65
2023-03-30T09:55:33.263Z,7.88
2023-03-30T10:00:40.104Z,8.11
2023-03-30T10:06:02.360Z,8.34
2023-03-30T10:11:09.468Z,8.61
2023-03-30T10:16:27.948Z,8.87
2023-03-30T10:21:41.485Z,9.11
2023-03-30T10:26:49.082Z,9.41
2023-03-30T10:32:03.758Z,9.53
2023-03-30T10:37:17.405Z,9.64
2023-03-30T10:42:28.248Z,9.71
2023-03-30T10:47:54.668Z,9.81
2023-03-30T10:53:21.632Z,9.88
2023-03-30T10:58:54.600Z,9.88
2023-03-30T11:04:20.470Z,9.97
2023-03-30T11:09:34.191Z,10.08
2023-03-30T11:14:49.056Z,10.29
2023-03-30T11:20:00.606Z,10.61
2023-03-30T11:25:23.763Z,10.81
2023-03-30T11:30:33.396Z,10.86
2023-03-30T11:35:47.563Z,10.89
2023-03-30T11:41:00.700Z,10.95
2023-03-30T11:46:16.282Z,11.14
2023-03-30T11:51:53.008Z,11.27
2023-03-30T11:57:11.499Z,11.41
2023-03-30T12:02:33.344Z,11.55
2023-03-30T12:07:50.261Z,11.71
2023-03-30T12:12:59.469Z,11.62
2023-03-30T12:18:17.418Z,11.64
2023-03-30T12:23:38.165Z,11.74
2023-03-30T12:29:40.582Z,11.68
2023-03-30T12:34:27.877Z,11.63
2023-03-30T12:39:45.363Z,11.61
2023-03-30T12:45:26.553Z,11.60
2023-03-30T12:50:45.630Z,11.59
2023-03-30T12:56:01.927Z,11.54
2023-03-30T13:01:38.901Z,11.48
2023-03-30T13:06:54.107Z,11.40
2023-03-30T13:12:44.457Z,11.31
2023-03-30T13:18:02.321Z,11.31
2023-03-30T13:23:34.135Z,11.32
2023-03-30T13:29:06.396Z,11.42
2023-03-30T13:34:33.055Z,11.54
2023-03-30T13:39:47.548Z,11.56
2023-03-30T13:45:06.397Z,11.63
2023-03-30T13:50:26.115Z,11.67
2023-03-30T13:55:39.306Z,11.76
2023-03-30T14:00:51.684Z,11.82
2023-03-30T14:06:05.879Z,11.76
2023-03-30T14:11:20.002Z,11.75
2023-03-30T14:16:29.122Z,11.69
2023-03-30T14:21:40.376Z,11.71
2023-03-30T14:26:50.690Z,11.69
2023-03-30T14:32:07.297Z,11.65
2023-03-30T14:37:20.550Z,11.58
2023-03-30T14:42:34.095Z,11.53
2023-03-30T14:47:41.075Z,11.48
2023-03-30T14:52:50.806Z,11.41
2023-03-30T14:57:57.659Z,11.33
2023-03-30T15:03:06.161Z,11.27
2023-03-30T15:08:23.190Z,11.18
2023-03-30T15:13:37.727Z,11.09
2023-03-30T15:18:44.582Z,10.98
2023-03-30T15:23:53.551Z,10.91
2023-03-30T15:29:01.987Z,10.84
2023-03-30T15:34:17.103Z,10.78
2023-03-30T15:39:34.036Z,10.73
2023-03-30T15:44:42.339Z,10.65
2023-03-30T15:49:52.892Z,10.61
2023-03-30T15:55:08.594Z,10.53
2023-03-30T16:00:20.750Z,10.50
2023-03-30T16:05:29.346Z,10.43
2023-03-30T16:10:38.899Z,10.36
2023-03-30T16:15:45.682Z,10.33
2023-03-30T16:20:52.616Z,10.30
2023-03-30T16:26:02.234Z,10.22
2023-03-30T16:31:16.845Z,10.17
2023-03-30T16:36:26.060Z,10.10
2023-03-30T16:41:34.798Z,10.07
2023-03-30T16:46:42.614Z,9.98
2023-03-30T16:51:50.774Z,9.91
2023-03-30T16:56:59.018Z,9.79
2023-03-30T17:02:08.347Z,9.71
2023-03-30T17:07:19.730Z,9.56
2023-03-30T17:12:28.457Z,9.46
2023-03-30T17:17:37.381Z,9.36
2023-03-30T17:22:45.082Z,9.29
2023-03-30T17:27:56.364Z,9.26
2023-03-30T17:33:04.757Z,9.26
2023-03-30T17:38:15.326Z,9.23
2023-03-30T17:43:25.728Z,9.23
2023-03-30T17:48:34.095Z,9.22
2023-03-30T17:53:44.871Z,9.20
2023-03-30T17:58:55.189Z,9.20
2023-03-30T18:04:04.820Z,9.16
2023-03-30T18:09:18.862Z,9.13
2023-03-30T18:14:35.487Z,9.06
2023-03-30T18:19:44.896Z,9.02
2023-03-30T18:24:57.433Z,8.97
2023-03-30T18:30:20.372Z,8.94
2023-03-30T18:35:33.438Z,8.86
2023-03-30T18:40:46.349Z,8.80
2023-03-30T18:46:02.261Z,8.74
2023-03-30T18:51:14.926Z,8.70
2023-03-30T18:56:25.181Z,8.69
2023-03-30T19:01:39.494Z,8.67
2023-03-30T19:06:49.747Z,8.63
2023-03-30T19:12:00.349Z,8.63
2023-03-30T19:17:12.288Z,8.63
2023-03-30T19:22:22.537Z,8.63
2023-03-30T19:27:32.733Z,8.65
2023-03-30T19:32:44.274Z,8.65
2023-03-30T19:37:56.739Z,8.64
2023-03-30T19:43:05.438Z,8.63
2023-03-30T19:48:22.047Z,8.63
2023-03-30T19:53:32.130Z,8.63
2023-03-30T19:58:43.972Z,8.62
2023-03-30T20:03:57.632Z,8.63
2023-03-30T20:09:05.612Z,8.59
2023-03-30T20:14:13.725Z,8.63
2023-03-30T20:19:29.324Z,8.62
2023-03-30T20:24:59.260Z,8.64
2023-03-30T20:30:09.461Z,8.63
2023-03-30T20:35:20.352Z,8.67
2023-03-30T20:40:28.085Z,8.70
2023-03-30T20:45:46.836Z,8.70
2023-03-30T20:50:56.568Z,8.76
2023-03-30T20:56:06.035Z,8.76
2023-03-30T21:01:18.939Z,8.75
2023-03-30T21:06:29.138Z,8.79
2023-03-30T21:11:39.354Z,8.78
2023-03-30T21:16:48.077Z,8.77
2023-03-30T21:21:56.160Z,8.81
2023-03-30T21:27:02.569Z,8.76
2023-03-30T21:32:09.268Z,8.79
2023-03-30T21:37:18.182Z,8.78
2023-03-30T21:42:25.232Z,8.78
2023-03-30T21:47:50.068Z,8.78
2023-03-30T21:53:01.135Z,8.73
2023-03-30T21:58:07.604Z,8.68
2023-03-30T22:03:14.328Z,8.68
2023-03-30T22:08:22.228Z,8.70
2023-03-30T22:13:29.579Z,8.65
2023-03-30T22:18:37.603Z,8.61
2023-03-30T22:23:45.524Z,8.61
2023-03-30T22:28:51.941Z,8.60
2023-03-30T22:33:58.642Z,8.61
2023-03-30T22:39:10.936Z,8.52
2023-03-30T22:44:18.507Z,8.46
2023-03-30T22:49:25.679Z,8.40
2023-03-30T22:54:33.930Z,8.35
2023-03-30T22:59:40.269Z,8.34
2023-03-30T23:04:49.514Z,8.35
2023-03-30T23:09:58.858Z,8.34
2023-03-30T23:15:05.713Z,8.37
2023-03-30T23:20:13.410Z,8.41
2023-03-30T23:25:21.505Z,8.39
2023-03-30T23:30:28.060Z,8.42
2023-03-30T23:35:34.618Z,8.44
2023-03-30T23:40:42.606Z,8.47
2023-03-30T23:45:49.319Z,8.49
2023-03-30T23:50:55.915Z,8.49
2023-03-30T23:56:06.642Z,8.49
